^^
Weerstation Genderen Historische Gegevens
 
Daily Summary for September 20, 2021 Units:  Metric    English   Both
Daily Weekly Monthly Yearly
  Current: High: Low: Average:
Temperature: 11.9 °C 14.1 °C 9.8 °C 11.8 °C
Dew Point: 8.3 °C 10.3 °C 7.3 °C 8.5 °C
Humidity: 79% 85% 78% 81%
Wind Speed: 9.6km/h 11.3km/h 0km/h 6.5km/h
Wind Gust: 8.2km/h 9.3km/h - -
WindEast - - East
Pressure: 1019.5 hPa 1019.5 hPa 1016.5 hPa -
Precipitation: 0.0 mm      
 
 
Tabular Data for September 20, 2021
Time Temperature Dew Point Pressure Wind Wind Speed Wind Gust Humidity Rainfall Rate (Hourly) solar
00:04 14.1 °C 10.3 °C 1016.5 hPa ESE 10.3 km/h 7.2 km/h 78% 0.0 mm W/m2
00:09 14.1 °C 10.3 °C 1016.6 hPa ESE 8.9 km/h 7.1 km/h 78% 0.0 mm W/m2
00:14 14 °C 10.2 °C 1016.6 hPa East 8 km/h 6.8 km/h 78% 0.0 mm W/m2
00:19 14 °C 10.2 °C 1016.7 hPa ESE 5.4 km/h 5.1 km/h 78% 0.0 mm W/m2
00:24 14 °C 10.2 °C 1016.7 hPa ESE 5.6 km/h 3.5 km/h 78% 0.0 mm W/m2
00:29 13.9 °C 10.2 °C 1016.8 hPa ESE 7 km/h 3.5 km/h 78% 0.0 mm W/m2
00:34 13.9 °C 10.1 °C 1016.8 hPa East 6.6 km/h 5.6 km/h 78% 0.0 mm W/m2
00:39 13.9 °C 10.1 °C 1016.7 hPa East 9.8 km/h 6.1 km/h 78% 0.0 mm W/m2
00:44 13.8 °C 10 °C 1016.7 hPa ESE 8.6 km/h 7.2 km/h 78.1% 0.0 mm W/m2
00:49 13.8 °C 10 °C 1016.8 hPa SSE 10.2 km/h 6.3 km/h 78.1% 0.0 mm W/m2
00:54 13.7 °C 10 °C 1016.8 hPa East 10.5 km/h 8.9 km/h 78.4% 0.0 mm W/m2
00:59 13.6 °C 9.9 °C 1016.8 hPa ESE 9.1 km/h 7.9 km/h 78.3% 0.0 mm W/m2
01:04 13.6 °C 9.8 °C 1016.9 hPa East 11.1 km/h 7.1 km/h 78% 0.0 mm W/m2
01:09 13.5 °C 9.8 °C 1016.9 hPa ESE 8.3 km/h 6.9 km/h 78% 0.0 mm W/m2
01:14 13.5 °C 9.7 °C 1016.9 hPa East 9.6 km/h 7.4 km/h 78% 0.0 mm W/m2
01:19 13.5 °C 9.7 °C 1016.9 hPa ESE 9.1 km/h 6.8 km/h 78% 0.0 mm W/m2
01:24 13.4 °C 9.7 °C 1016.8 hPa East 6.7 km/h 5.8 km/h 78% 0.0 mm W/m2
01:29 13.4 °C 9.7 °C 1016.9 hPa East 8.9 km/h 7.1 km/h 78.3% 0.0 mm W/m2
01:34 13.3 °C 9.5 °C 1016.9 hPa East 7.9 km/h 7.7 km/h 78% 0.0 mm W/m2
01:39 13.3 °C 9.5 °C 1016.9 hPa SE 5.8 km/h 5 km/h 78% 0.0 mm W/m2
01:44 13.2 °C 9.4 °C 1017.0 hPa ESE 7.2 km/h 5.1 km/h 78% 0.0 mm W/m2
01:49 13.1 °C 9.6 °C 1017.0 hPa ESE 5.6 km/h 3.5 km/h 78.9% 0.0 mm W/m2
01:54 13.1 °C 9.6 °C 1017.1 hPa ESE 4 km/h 3.7 km/h 79% 0.0 mm W/m2
01:59 13.1 °C 9.5 °C 1017.1 hPa ESE 6.3 km/h 4.7 km/h 78.7% 0.0 mm W/m2
02:04 13 °C 9.3 °C 1017.1 hPa ESE 5.4 km/h 4.2 km/h 78% 0.0 mm W/m2
02:09 13 °C 9.3 °C 1017.1 hPa ESE 6.1 km/h 8.2 km/h 78% 0.0 mm W/m2
02:14 12.9 °C 9.2 °C 1017.1 hPa SE 9.8 km/h 8.5 km/h 78% 0.0 mm W/m2
02:19 12.9 °C 9.1 °C 1017.1 hPa East 7.6 km/h 7.6 km/h 78% 0.0 mm W/m2
02:24 12.8 °C 9.1 °C 1017.1 hPa ESE 9.6 km/h 7.6 km/h 78% 0.0 mm W/m2
02:29 12.8 °C 9.1 °C 1017.1 hPa East 10.5 km/h 6.8 km/h 78% 0.0 mm W/m2
02:34 12.8 °C 9 °C 1017.1 hPa ESE 6.9 km/h 5.1 km/h 78% 0.0 mm W/m2
02:39 12.7 °C 9 °C 1017.1 hPa East 11 km/h 6.9 km/h 78% 0.0 mm W/m2
02:44 12.7 °C 9 °C 1017.1 hPa ESE 8.8 km/h 6.6 km/h 78.2% 0.0 mm W/m2
02:49 12.7 °C 9.1 °C 1017.1 hPa ESE 8.1 km/h 6 km/h 78.9% 0.0 mm W/m2
02:54 12.6 °C 9.1 °C 1017.1 hPa ESE 5 km/h 2.7 km/h 79% 0.0 mm W/m2
02:59 12.6 °C 9 °C 1017.1 hPa ESE 6.9 km/h 7.2 km/h 79% 0.0 mm W/m2
03:04 12.6 °C 9 °C 1017.2 hPa East 8.8 km/h 5.8 km/h 79% 0.0 mm W/m2
03:09 12.5 °C 9 °C 1017.2 hPa East 5.8 km/h 6.4 km/h 79% 0.0 mm W/m2
03:14 12.5 °C 8.9 °C 1017.2 hPa ESE 9.4 km/h 6.6 km/h 79% 0.0 mm W/m2
03:19 12.5 °C 9 °C 1017.2 hPa SE 6 km/h 3.2 km/h 79% 0.0 mm W/m2
03:24 12.6 °C 9 °C 1017.2 hPa SE 3.8 km/h 4.2 km/h 79% 0.0 mm W/m2
03:29 12.5 °C 9 °C 1017.2 hPa ESE 6.2 km/h 4.8 km/h 79% 0.0 mm W/m2
03:34 12.4 °C 8.9 °C 1017.2 hPa ESE 11.2 km/h 7.9 km/h 79% 0.0 mm W/m2
03:39 12.4 °C 8.8 °C 1017.2 hPa ESE 8.1 km/h 6.4 km/h 79% 0.0 mm W/m2
03:44 12.3 °C 8.8 °C 1017.2 hPa ESE 8.6 km/h 7.2 km/h 79% 0.0 mm W/m2
03:49 12.3 °C 8.7 °C 1017.2 hPa East 8.5 km/h 5.3 km/h 79% 0.0 mm W/m2
03:54 12.3 °C 8.7 °C 1017.2 hPa East 7.1 km/h 5.1 km/h 79% 0.0 mm W/m2
03:59 12.3 °C 8.7 °C 1017.2 hPa East 9.1 km/h 5.5 km/h 79% 0.0 mm W/m2
04:04 12.3 °C 8.7 °C 1017.2 hPa East 7.8 km/h 5.3 km/h 79% 0.0 mm W/m2
04:09 12.3 °C 8.7 °C 1017.2 hPa East 8.7 km/h 7.9 km/h 79% 0.0 mm W/m2
04:14 12.3 °C 8.7 °C 1017.2 hPa East 7.1 km/h 4.8 km/h 79% 0.0 mm W/m2
04:19 12.3 °C 8.7 °C 1017.2 hPa East 6.4 km/h 4.5 km/h 79.1% 0.0 mm W/m2
04:24 12.2 °C 8.9 °C 1017.2 hPa East 8.4 km/h 7.1 km/h 80% 0.0 mm W/m2
04:29 12.2 °C 8.6 °C 1017.2 hPa East 6.8 km/h 7.2 km/h 79% 0.0 mm W/m2
04:34 12.1 °C 8.7 °C 1017.3 hPa East 5.7 km/h 4.2 km/h 79.6% 0.0 mm W/m2
04:39 12.1 °C 8.8 °C 1017.3 hPa East 7.1 km/h 5.6 km/h 80% 0.0 mm W/m2
04:44 12 °C 8.6 °C 1017.3 hPa East 11.3 km/h 7.9 km/h 79.5% 0.0 mm W/m2
04:49 12 °C 8.6 °C 1017.4 hPa East 5.8 km/h 4.8 km/h 80% 0.0 mm W/m2
04:54 11.9 °C 8.6 °C 1017.4 hPa East 8.2 km/h 4.5 km/h 80% 0.0 mm W/m2
04:59 11.8 °C 8.5 °C 1017.5 hPa East 7.3 km/h 9.3 km/h 80% 0.0 mm W/m2
05:04 11.7 °C 8.5 °C 1017.5 hPa East 9.4 km/h 9.3 km/h 80.8% 0.0 mm W/m2
05:09 11.6 °C 8.4 °C 1017.5 hPa East 6.9 km/h 5.6 km/h 81% 0.0 mm W/m2
05:14 11.5 °C 8.3 °C 1017.6 hPa East 9.1 km/h 6.4 km/h 81% 0.0 mm W/m2
05:19 11.4 °C 8.2 °C 1017.6 hPa East 10.4 km/h 6.8 km/h 81% 0.0 mm W/m2
05:24 11.3 °C 8.1 °C 1017.6 hPa ENE 7.8 km/h 6.1 km/h 81% 0.0 mm W/m2
05:29 11.2 °C 8 °C 1017.7 hPa ENE 6.1 km/h 4.5 km/h 81% 0.0 mm W/m2
05:34 11 °C 8 °C 1017.7 hPa ENE 8.3 km/h 5.6 km/h 81.7% 0.0 mm W/m2
05:39 10.9 °C 7.9 °C 1017.8 hPa ENE 5.7 km/h 4.7 km/h 82% 0.0 mm W/m2
05:44 10.8 °C 7.8 °C 1017.9 hPa ENE 5.9 km/h 4.3 km/h 82% 0.0 mm W/m2
05:49 10.7 °C 7.7 °C 1018.0 hPa ENE 5.7 km/h 4.8 km/h 82% 0.0 mm W/m2
05:54 10.6 °C 7.6 °C 1018.0 hPa ENE 5.1 km/h 2.9 km/h 82% 0.0 mm W/m2
05:59 10.5 °C 7.5 °C 1018.0 hPa ENE 3.1 km/h 1.8 km/h 82% 0.0 mm W/m2
06:04 10.4 °C 7.6 °C 1018.0 hPa ENE 6.6 km/h 4.3 km/h 83% 0.0 mm W/m2
06:09 10.3 °C 7.5 °C 1018.0 hPa ENE 3.6 km/h 2.4 km/h 83% 0.0 mm W/m2
06:14 10.2 °C 7.4 °C 1018.0 hPa ENE 5 km/h 3.4 km/h 83% 0.0 mm W/m2
06:19 10.1 °C 7.4 °C 1018.1 hPa ENE 4.8 km/h 3.4 km/h 83.1% 0.0 mm W/m2
06:24 10 °C 7.5 °C 1018.0 hPa ENE 2.6 km/h 1.9 km/h 84% 0.0 mm W/m2
06:29 10 °C 7.4 °C 1018.1 hPa ENE 4.7 km/h 3.5 km/h 84% 0.0 mm W/m2
06:34 10 °C 7.4 °C 1018.1 hPa ENE 6.2 km/h 3.5 km/h 84% 0.0 mm W/m2
06:39 9.9 °C 7.4 °C 1018.1 hPa ENE 5.6 km/h 4.7 km/h 84% 0.0 mm W/m2
06:44 9.9 °C 7.4 °C 1018.2 hPa ENE 5.3 km/h 4.5 km/h 84% 0.0 mm W/m2
06:49 9.9 °C 7.4 °C 1018.3 hPa ENE 5.6 km/h 4.8 km/h 84% 0.0 mm W/m2
06:54 9.9 °C 7.4 °C 1018.4 hPa ENE 2.5 km/h 1.4 km/h 84% 0.0 mm W/m2
06:59 9.9 °C 7.3 °C 1018.4 hPa ENE 5.5 km/h 2.1 km/h 84% 0.0 mm W/m2
07:04 9.9 °C 7.3 °C 1018.5 hPa ENE 2.8 km/h 1.3 km/h 84% 0.0 mm W/m2
07:09 9.9 °C 7.3 °C 1018.5 hPa ENE 5 km/h 4.2 km/h 84% 0.0 mm W/m2
07:14 9.8 °C 7.3 °C 1018.6 hPa ENE 5.1 km/h 3.2 km/h 84% 0.0 mm W/m2
07:19 9.8 °C 7.3 °C 1018.6 hPa ENE 1.8 km/h 0.8 km/h 84% 0.0 mm W/m2
07:24 9.8 °C 7.3 °C 1018.7 hPa Calm     84% 0.0 mm W/m2
07:29 9.9 °C 7.4 °C 1018.6 hPa ENE 2.2 km/h 1 km/h 84.8% 0.0 mm W/m2
07:34 9.9 °C 7.5 °C 1018.7 hPa ENE 3.5 km/h 2.7 km/h 85% 0.0 mm W/m2
07:39 10 °C 7.6 °C 1018.8 hPa ENE 4.1 km/h 2.9 km/h 85% 0.0 mm W/m2
07:44 10.1 °C 7.7 °C 1018.8 hPa ENE 0.7 km/h 0.6 km/h 85% 0.0 mm W/m2
07:49 10.1 °C 7.7 °C 1018.8 hPa ENE 3.8 km/h 1.8 km/h 85% 0.0 mm W/m2
07:54 10.1 °C 7.7 °C 1018.8 hPa ENE 2.4 km/h 1 km/h 85% 0.0 mm W/m2
07:59 10.2 °C 7.6 °C 1018.8 hPa ENE 1.8 km/h 1 km/h 84% 0.0 mm W/m2
08:04 10.2 °C 7.6 °C 1018.8 hPa ENE 4.3 km/h 4.5 km/h 84% 0.0 mm W/m2
08:09 10.2 °C 7.6 °C 1018.9 hPa ENE 3.4 km/h 1.8 km/h 84% 0.0 mm W/m2
08:14 10.2 °C 7.6 °C 1018.9 hPa ENE 3.8 km/h 1.3 km/h 84% 0.0 mm W/m2
08:19 10.3 °C 7.6 °C 1018.9 hPa ENE 4.7 km/h 3.2 km/h 83.6% 0.0 mm W/m2
08:24 10.3 °C 7.5 °C 1019.0 hPa ENE 6.3 km/h 5.1 km/h 83% 0.0 mm W/m2
08:29 10.4 °C 7.6 °C 1019.0 hPa ENE 3.4 km/h 2.3 km/h 83% 0.0 mm W/m2
08:34 10.5 °C 7.7 °C 1019.0 hPa ENE 5.7 km/h 3.2 km/h 83% 0.0 mm W/m2
08:39 10.6 °C 7.9 °C 1019.1 hPa ENE 4.6 km/h 4 km/h 83% 0.0 mm W/m2
08:44 10.8 °C 8 °C 1019.1 hPa ENE 6.7 km/h 5.5 km/h 82.7% 0.0 mm W/m2
08:49 10.9 °C 8 °C 1019.1 hPa ENE 5.2 km/h 4.8 km/h 82% 0.0 mm W/m2
08:54 11 °C 8.1 °C 1019.2 hPa ENE 6.2 km/h 5.3 km/h 81.8% 0.0 mm W/m2
08:59 11.1 °C 8 °C 1019.2 hPa East 5.9 km/h 5 km/h 81% 0.0 mm W/m2
09:04 11.2 °C 8.1 °C 1019.2 hPa East 5.1 km/h 3.5 km/h 81% 0.0 mm W/m2
09:09 11.4 °C 8.2 °C 1019.2 hPa East 4.6 km/h 3.5 km/h 81% 0.0 mm W/m2
09:14 11.5 °C 8.2 °C 1019.2 hPa ENE 6.2 km/h 4.5 km/h 80.2% 0.0 mm W/m2
09:19 11.6 °C 8.2 °C 1019.3 hPa ENE 7.8 km/h 5.5 km/h 80% 0.0 mm W/m2
09:24 11.6 °C 8.2 °C 1019.3 hPa ENE 6.3 km/h 5.8 km/h 80% 0.0 mm W/m2
09:29 11.6 °C 8.3 °C 1019.4 hPa ENE 6.5 km/h 5 km/h 80% 0.0 mm W/m2
09:34 11.7 °C 8.4 °C 1019.4 hPa ENE 4.3 km/h 3.5 km/h 80% 0.0 mm W/m2
09:39 11.7 °C 8.4 °C 1019.4 hPa ENE 5.4 km/h 4.3 km/h 80% 0.0 mm W/m2
09:44 11.7 °C 8.3 °C 1019.5 hPa ENE 7.3 km/h 6.4 km/h 79.2% 0.0 mm W/m2
09:49 11.7 °C 8.3 °C 1019.5 hPa ENE 6.1 km/h 3.1 km/h 79.6% 0.0 mm W/m2
09:54 11.8 °C 8.4 °C 1019.5 hPa ENE 6.9 km/h 6.1 km/h 79.7% 0.0 mm W/m2
09:59 11.9 °C 8.3 °C 1019.5 hPa East 9.6 km/h 8.2 km/h 79% 0.0 mm W/m2
Genderen, Netherlands, EU
Compliments of Weather Underground - 2 mb